Latest Weather Observations for Minlaton Airport

IDS60801

Issued at 11:31 am CST Wednesday 2 September 2015 (issued every 30 minutes, with the page automatically refreshed every 10 minutes)

About weather observations | Map of weather stations | Latest weather observations for SA | Other Formats
Station Details ID: 022031 Name: MINLATON AERO Lat: -34.75 Lon: 137.53 Height: 32.0 m
Data from the previous 72 hours. | See also: Recent months at Minlaton Airport
Date/Time
CST
Temp
°C
App
Temp
°C
Dew
Point
Rel
Hum
%
Delta-T
°C
Wind Press
QNH
hPa
Press
MSL
hPa
Rain
since 9 am
mm
Dir
 
Spd
km/h
Gust
km/h
Spd
kts
Gust
kts
02/11:30am 10.2 3.3 9.0 92 0.6 N 35 48 19 26 1001.5 1001.4 1.0
02/11:00am 10.4 2.3 8.7 89 0.8 N 41 56 22 30 1002.0 1002.0 0.2
02/10:30am 10.9 4.0 9.0 88 0.9 N 35 54 19 29 1002.4 1002.4 0.0
02/10:28am 10.6 3.6 8.5 87 1.0 N 35 54 19 29 1002.5 1002.5 0.0
02/10:00am 11.9 4.1 8.2 78 1.8 N 39 52 21 28 1002.7 1002.7 0.0
02/09:30am 12.1 4.1 9.1 82 1.5 NNW 41 59 22 32 1003.2 1003.2 0.0
02/09:00am 11.8 3.3 8.5 80 1.6 NNW 43 61 23 33 1003.3 1003.3 5.8
02/08:30am 12.1 4.6 9.5 84 1.3 N 39 57 21 31 1003.3 1003.3 5.8
02/08:13am 12.0 4.6 8.3 78 1.8 N 37 56 20 30 1003.4 1003.4 5.8
02/08:00am 11.5 4.5 8.4 81 1.5 NNW 35 48 19 26 1003.5 1003.5 5.8
02/07:30am 11.2 4.7 8.8 85 1.2 N 33 46 18 25 1003.5 1003.5 5.8
02/07:00am 10.7 3.7 8.3 85 1.2 NNW 35 48 19 26 1003.5 1003.5 5.8
02/06:30am 10.8 4.2 8.4 85 1.2 NNW 33 46 18 25 1003.6 1003.6 5.8
02/06:00am 10.8 4.8 8.6 86 1.1 N 30 37 16 20 1003.8 1003.8 5.8
02/05:30am 11.0 5.4 8.9 87 1.0 NNW 28 39 15 21 1003.7 1003.7 5.8
02/05:00am 10.8 4.8 8.7 87 1.0 NNW 30 41 16 22 1004.0 1004.0 5.8
02/04:30am 10.7 6.3 9.1 90 0.8 N 22 30 12 16 1003.9 1003.9 5.8
02/04:00am 10.6 5.8 8.9 89 0.8 N 24 30 13 16 1003.9 1003.9 5.8
02/03:30am 10.7 5.9 9.0 89 0.8 N 24 32 13 17 1004.2 1004.2 5.8
02/03:00am 10.9 7.0 9.5 91 0.7 N 20 28 11 15 1004.0 1004.0 5.8
02/02:30am 11.2 6.7 10.1 93 0.6 N 24 28 13 15 1005.0 1005.0 5.8
02/02:00am 11.1 6.6 9.9 92 0.6 N 24 32 13 17 1005.2 1005.2 5.6
02/01:30am 11.2 6.7 10.1 93 0.6 N 24 30 13 16 1005.3 1005.3 5.6
02/01:00am 11.1 6.3 10.2 94 0.5 N 26 33 14 18 1006.1 1006.1 5.6
02/12:30am 11.3 5.7 10.2 93 0.6 N 30 39 16 21 1006.0 1006.0 5.4
02/12:00am 11.4 5.4 10.0 91 0.7 N 32 44 17 24 1006.4 1006.4 5.4
 
Date/Time
CST
Temp
°C
App
Temp
°C
Dew
Point
Rel
Hum
%
Delta-T
°C
Wind Press
QNH
hPa
Press
MSL
hPa
Rain
since 9 am
mm
Dir
 
Spd
km/h
Gust
km/h
Spd
kts
Gust
kts
01/11:30pm 11.2 7.1 10.1 93 0.6 N 22 30 12 16 1006.3 1006.3 5.4
01/11:00pm 11.1 5.5 10.0 93 0.6 N 30 39 16 21 1006.5 1006.5 5.2
01/10:30pm 11.6 5.6 10.0 90 0.8 N 32 43 17 23 1006.9 1006.9 4.4
01/10:18pm 11.9 6.6 10.0 88 1.0 N 28 41 15 22 1006.7 1006.7 4.0
01/10:00pm 11.6 8.1 10.2 91 0.7 NNE 19 20 10 11 1006.3 1006.3 4.0
01/09:30pm 12.0 6.3 9.9 87 1.1 N 30 41 16 22 1006.6 1006.6 3.8
01/09:00pm 12.1 6.4 9.7 85 1.2 NE 30 35 16 19 1006.3 1006.3 3.6
01/08:30pm 11.7 7.0 9.4 86 1.2 NE 24 32 13 17 1006.5 1006.5 3.6
01/08:00pm 11.4 5.9 9.1 86 1.1 NE 28 33 15 18 1005.8 1005.8 3.6
01/07:30pm 11.4 6.7 9.1 86 1.2 ENE 24 30 13 16 1005.8 1005.8 3.6
01/07:00pm 12.0 8.2 9.9 87 1.1 NE 20 24 11 13 1006.1 1006.1 3.2
01/06:30pm 12.1 7.2 10.0 87 1.1 NE 26 32 14 17 1005.8 1005.8 3.0
01/06:00pm 12.3 5.3 10.0 86 1.2 NE 37 46 20 25 1005.9 1005.9 2.8
01/05:53pm 12.6 6.6 10.1 85 1.3 NE 32 44 17 24 1006.0 1006.0 1.8
01/05:30pm 12.7 9.1 10.6 87 1.1 NNE 20 26 11 14 1006.9 1006.9 1.0
01/05:00pm 13.4 8.7 10.6 83 1.5 NNE 26 33 14 18 1007.1 1007.1 0.0
01/04:30pm 16.1 9.1 8.3 60 4.0 N 35 46 19 25 1006.5 1006.5 0.0
01/04:00pm 16.5 10.4 6.6 52 4.9 NNE 28 37 15 20 1006.8 1006.8 0.0
01/03:30pm 16.4 12.2 7.6 56 4.4 NNE 19 22 10 12 1007.0 1007.0 0.0
01/03:00pm 15.8 12.0 7.6 58 4.1 N 17 19 9 10 1007.7 1007.7 0.0
01/02:30pm 15.5 10.8 6.0 53 4.6 N 20 26 11 14 1008.0 1008.0 0.0
01/02:00pm 15.7 9.1 4.4 47 5.3 N 28 37 15 20 1008.4 1008.4 0.0
01/01:30pm 15.7 8.5 3.2 43 5.7 N 30 43 16 23 1008.7 1008.7 0.0
01/01:00pm 16.7 8.8 2.3 38 6.5 N 33 46 18 25 1009.1 1009.1 0.0
01/12:30pm 18.2 9.6 2.5 35 7.2 N 37 48 20 26 1009.6 1009.6 0.0
01/12:00pm 20.3 11.3 4.8 36 7.6 N 41 56 22 30 1009.8 1009.8 0.0
01/11:30am 19.6 11.7 4.5 37 7.3 N 35 46 19 25 1010.1 1010.1 0.0
01/11:00am 18.3 10.5 6.5 46 5.9 N 37 46 20 25 1010.3 1010.3 0.0
01/10:30am 16.6 8.9 5.3 47 5.4 N 35 43 19 23 1010.9 1010.9 0.0
01/10:00am 15.4 8.4 6.1 54 4.5 N 32 44 17 24 1011.1 1011.1 0.0
01/09:30am 15.9 9.4 6.6 54 4.6 N 30 39 16 21 1011.3 1011.3 0.0
01/09:00am 15.2 9.1 6.7 57 4.2 N 28 39 15 21 1011.6 1011.6 0.0
01/08:30am 14.0 8.6 6.4 60 3.7 NNE 24 33 13 18 1011.8 1011.8 0.0
01/08:00am 12.7 8.7 6.7 67 2.9 NE 17 24 9 13 1011.8 1011.8 0.0
01/07:30am 11.8 7.6 5.9 67 2.8 NNE 17 19 9 10 1011.9 1011.9 0.0
01/07:00am 12.4 7.7 5.3 62 3.3 NNE 19 22 10 12 1011.9 1011.9 0.0
01/06:30am 12.5 7.7 5.4 62 3.3 NNE 20 24 11 13 1011.8 1011.8 0.0
01/06:00am 11.7 7.6 6.0 68 2.7 NNE 17 22 9 12 1011.8 1011.8 0.0
01/05:30am 11.2 6.8 6.5 73 2.2 NNE 19 20 10 11 1011.7 1011.7 0.0
01/05:00am 10.6 6.6 6.6 76 1.9 NNE 17 20 9 11 1011.8 1011.8 0.0
01/04:30am 11.1 6.8 6.8 75 2.0 NNE 19 20 10 11 1011.8 1011.8 0.0
01/04:00am 11.7 7.1 6.6 71 2.4 NE 20 22 11 12 1011.9 1011.9 0.0
01/03:30am 11.1 7.1 6.6 74 2.1 NNE 17 20 9 11 1012.0 1012.0 0.0
01/03:00am 11.2 7.2 6.5 73 2.2 NNE 17 19 9 10 1012.6 1012.6 0.0
01/02:30am 11.5 7.4 6.4 71 2.4 NNE 17 20 9 11 1013.0 1013.0 0.0
01/02:00am 10.9 6.4 6.3 73 2.2 NNE 19 20 10 11 1013.5 1013.5 0.0
01/01:30am 10.5 5.9 5.7 72 2.2 NNE 19 20 10 11 1013.7 1013.7 0.0
01/01:00am 10.9 6.1 5.4 69 2.5 NNE 20 24 11 13 1013.8 1013.8 0.0
01/12:30am 10.7 5.5 5.3 69 2.5 NNE 22 26 12 14 1014.0 1014.0 0.0
01/12:00am 11.0 5.9 6.0 71 2.3 NE 22 24 12 13 1014.1 1014.1 0.0
 
Date/Time
CST
Temp
°C
App
Temp
°C
Dew
Point
Rel
Hum
%
Delta-T
°C
Wind Press
QNH
hPa
Press
MSL
hPa
Rain
since 9 am
mm
Dir
 
Spd
km/h
Gust
km/h
Spd
kts
Gust
kts
31/11:30pm 11.4 6.0 6.5 72 2.3 NE 24 28 13 15 1014.5 1014.5 0.0
31/11:00pm 10.7 5.4 6.8 77 1.8 ENE 24 26 13 14 1014.7 1014.7 0.0
31/10:30pm 11.4 6.5 6.9 74 2.1 ENE 22 26 12 14 1015.0 1015.0 0.0
31/10:00pm 12.8 7.2 7.0 68 2.8 ENE 26 32 14 17 1015.4 1015.4 0.0
31/09:30pm 12.5 7.3 7.2 70 2.6 ENE 24 28 13 15 1015.6 1015.6 0.0
31/09:00pm 12.5 8.1 7.4 71 2.5 ENE 20 26 11 14 1015.8 1015.8 0.0
31/08:30pm 12.0 7.1 7.1 72 2.4 ENE 22 26 12 14 1015.7 1015.7 0.0
31/08:00pm 12.0 7.7 6.9 71 2.4 ENE 19 22 10 12 1015.9 1015.9 0.0
31/07:30pm 12.0 7.8 7.3 73 2.3 E 19 20 10 11 1015.7 1015.7 0.0
31/07:00pm 11.9 7.6 7.8 76 2.0 E 20 22 11 12 1015.6 1015.6 0.0
31/06:30pm 12.5 8.4 7.8 73 2.3 ENE 19 20 10 11 1015.7 1015.7 0.0
31/06:00pm 12.6 8.6 8.1 74 2.2 ENE 19 20 10 11 1015.7 1015.7 0.0
31/05:30pm 13.6 10.0 8.4 71 2.6 ENE 17 20 9 11 1015.8 1015.8 0.0
31/05:00pm 16.6 13.5 8.8 60 4.0 ENE 15 19 8 10 1015.8 1015.8 0.0
31/04:30pm 18.9 15.9 6.1 43 6.3 NNE 11 15 6 8 1016.0 1016.0 0.0
31/04:00pm 19.1 15.9 6.9 45 6.1 NW 13 19 7 10 1016.4 1016.4 0.0
31/03:30pm 20.1 17.1 6.1 40 7.0 NNW 11 17 6 9 1016.5 1016.5 0.0
31/03:00pm 20.2 16.8 3.9 34 7.8 N 11 17 6 9 1016.6 1016.6 0.0
31/02:30pm 19.7 15.6 4.2 36 7.4 NNW 15 19 8 10 1017.0 1017.0 0.0
31/02:00pm 19.4 14.2 3.6 35 7.5 NW 20 24 11 13 1017.4 1017.4 0.0
31/01:30pm 19.6 14.6 4.5 37 7.3 NW 20 28 11 15 1017.7 1017.7 0.0
31/01:00pm 19.2 14.3 5.3 40 6.8 NNW 20 26 11 14 1018.3 1018.3 0.0
31/12:30pm 18.4 13.2 5.6 43 6.2 NNW 22 28 12 15 1018.7 1018.7 0.0
31/12:00pm 18.1 13.2 6.9 48 5.6 NW 22 28 12 15 1019.3 1019.3 0.0
31/11:30am 18.0 13.7 7.7 51 5.2 NNW 20 26 11 14 1019.6 1019.6 0.0
31/11:00am 17.5 13.1 6.7 49 5.4 NNW 19 24 10 13 1019.8 1019.8 0.0
31/10:30am 17.0 13.5 7.4 53 4.8 N 15 20 8 11 1020.0 1020.0 0.0
31/10:00am 15.9 12.6 7.9 59 4.0 N 15 17 8 9 1020.3 1020.3 0.0
31/09:30am 14.3 11.0 8.0 66 3.1 NNE 15 19 8 10 1020.3 1020.3 0.0
31/09:00am 12.7 9.8 8.2 74 2.2 NNE 13 17 7 9 1020.4 1020.5 0.4
31/08:30am 10.7 7.3 7.6 81 1.5 ENE 15 17 8 9 1020.5 1020.6 0.4
31/08:00am 8.6 4.5 6.4 86 1.0 ENE 17 22 9 12 1020.4 1020.5 0.4
31/07:30am 6.5 1.6 5.0 90 0.7 ENE 20 22 11 12 1020.2 1020.2 0.4
31/07:00am 5.3 -0.1 4.4 94 0.4 ENE 22 24 12 13 1019.8 1019.8 0.4
31/06:30am 4.9 -0.6 4.0 94 0.4 ENE 22 24 12 13 1019.8 1019.8 0.4
31/06:00am 4.8 -1.0 4.2 96 0.3 E 24 26 13 14 1019.7 1019.7 0.4
31/05:30am 4.9 -0.5 4.3 96 0.3 E 22 24 12 13 1019.9 1019.9 0.4
31/05:00am 5.6 0.3 5.0 96 0.3 E 22 24 12 13 1020.0 1020.0 0.4
31/04:30am 5.2 -0.2 4.6 96 0.3 E 22 24 12 13 1020.0 1020.0 0.4
31/04:00am 5.1 -0.3 4.4 95 0.3 E 22 22 12 12 1020.1 1020.1 0.4
31/03:30am 5.3 0.3 4.6 95 0.3 E 20 24 11 13 1020.2 1020.2 0.4
31/03:00am 5.9 0.6 5.2 95 0.3 E 22 26 12 14 1020.2 1020.2 0.2
31/02:30am 5.7 0.0 5.0 95 0.3 E 24 26 13 14 1020.6 1020.7 0.2
31/02:00am 6.0 0.7 5.1 94 0.4 E 22 24 12 13 1021.1 1021.2 0.2
31/01:30am 6.3 1.1 5.4 94 0.4 E 22 24 12 13 1021.3 1021.4 0.2
31/01:00am 6.3 0.7 5.4 94 0.4 E 24 26 13 14 1021.4 1021.5 0.2
31/12:30am 6.2 1.0 5.3 94 0.4 E 22 24 12 13 1021.6 1021.7 0.2
31/12:00am 6.3 1.1 5.4 94 0.4 E 22 26 12 14 1021.8 1021.9 0.2
 
Date/Time
CST
Temp
°C
App
Temp
°C
Dew
Point
Rel
Hum
%
Delta-T
°C
Wind Press
QNH
hPa
Press
MSL
hPa
Rain
since 9 am
mm
Dir
 
Spd
km/h
Gust
km/h
Spd
kts
Gust
kts
30/11:30pm 6.5 1.3 5.6 94 0.4 E 22 24 12 13 1022.0 1022.1 0.2
30/11:00pm 6.5 1.7 5.6 94 0.4 E 20 22 11 12 1022.0 1022.1 0.2
30/10:30pm 6.7 1.6 5.8 94 0.4 E 22 26 12 14 1022.0 1022.1 0.2
30/10:00pm 6.4 1.2 5.7 95 0.3 E 22 24 12 13 1022.2 1022.3 0.2
30/09:30pm 5.8 0.9 4.9 94 0.4 E 20 20 11 11 1022.5 1022.6 0.2
30/09:00pm 5.7 0.7 4.7 93 0.4 E 20 20 11 11 1022.6 1022.7 0.2
30/08:30pm 5.9 0.9 4.7 92 0.5 E 20 22 11 12 1022.6 1022.7 0.2
30/08:00pm 6.3 1.3 4.8 90 0.7 E 20 22 11 12 1022.5 1022.6 0.2
30/07:30pm 6.6 1.6 4.8 88 0.8 E 20 20 11 11 1022.4 1022.5 0.2
30/07:00pm 7.0 2.3 5.2 88 0.8 E 19 20 10 11 1022.3 1022.4 0.2
30/06:30pm 6.9 2.9 4.7 86 1.0 SE 15 15 8 8 1022.5 1022.6 0.2
30/06:00pm 10.0 7.9 5.6 74 2.0 SW 6 7 3 4 1022.6 1022.7 0.2
30/05:30pm 13.4 11.8 8.0 70 2.7 SW 6 7 3 4 1022.5 1022.6 0.2
30/05:00pm 13.8 11.5 7.3 65 3.2 WSW 9 13 5 7 1022.6 1022.7 0.2
30/04:30pm 14.2 11.3 6.6 60 3.7 WSW 11 15 6 8 1022.3 1022.4 0.2
30/04:00pm 15.0 12.0 7.5 61 3.7 W 13 17 7 9 1022.5 1022.6 0.2
30/03:30pm 15.1 11.8 6.4 56 4.2 W 13 19 7 10 1022.5 1022.6 0.2
30/03:00pm 15.3 12.0 6.3 55 4.3 WNW 13 20 7 11 1022.6 1022.7 0.2
30/02:30pm 15.4 11.7 7.9 61 3.7 WNW 17 22 9 12 1022.9 1023.0 0.2
30/02:00pm 15.4 10.6 7.4 59 4.0 WNW 22 26 12 14 1023.2 1023.3 0.2
30/01:30pm 15.3 10.7 6.6 56 4.2 WNW 20 26 11 14 1023.4 1023.5 0.2
30/01:00pm 15.1 10.8 6.9 58 4.0 WNW 19 24 10 13 1023.8 1023.9 0.2
30/12:30pm 16.1 12.9 6.8 54 4.6 N 13 19 7 10 1024.1 1024.2 0.2
30/12:00pm 15.9 11.7 5.8 51 4.8 NNE 17 24 9 13 1024.6 1024.7 0.2

Other Formats:

Comma delimited format used in spreadsheet applications
http://www.bom.gov.au/fwo/IDS60801/IDS60801.95659.axf

JavaScript Object Notation format (JSON) in row-major order
http://www.bom.gov.au/fwo/IDS60801/IDS60801.95659.json